NCAR-RAP Real-Time Weather Data

Output produced by METARs form (23 November 2014  07:02 UTC)
found at http://weather.rap.ucar.edu/surface/
 
Conditions at: K4O4 observed 23 November 2014  06:55 UTC
Temperature: 15.0°C (59°F)
Dewpoint: 14.0°C (57°F) [RH = 94%]
Pressure (altimeter): 29.67 inches Hg (1004.8 mb)
Winds: from the SSE (150 degrees) at 12 MPH (10 knots; 5.2 m/s)
Visibility: 10 or more miles (16+ km)
Ceiling: 800 feet AGL
Clouds: overcast cloud deck at 800 feet AGL
Present Weather: automated observation with no human augmentation;
there may or may not be significant weather present at this time
K4O4 230655Z AUTO 15010KT 10SM OVC008 15/14 A2967 RMK AO2